createdAt,value
2022-10-09T00:01:12.731Z,99.90
2022-10-09T00:03:42.183Z,99.90
2022-10-09T00:06:12.345Z,99.90
2022-10-09T00:08:40.361Z,99.90
2022-10-09T00:11:08.735Z,99.90
2022-10-09T00:13:36.126Z,99.90
2022-10-09T00:16:09.352Z,99.90
2022-10-09T00:18:37.173Z,99.90
2022-10-09T00:21:05.263Z,99.90
2022-10-09T00:23:32.583Z,99.90
2022-10-09T00:26:01.877Z,99.90
2022-10-09T00:28:33.353Z,99.90
2022-10-09T00:31:05.301Z,99.90
2022-10-09T00:33:32.283Z,99.90
2022-10-09T00:35:59.186Z,99.90
2022-10-09T00:38:26.043Z,99.90
2022-10-09T00:40:52.981Z,99.90
2022-10-09T00:43:41.885Z,99.90
2022-10-09T00:46:35.920Z,99.90
2022-10-09T00:49:20.236Z,99.90
2022-10-09T00:51:48.688Z,99.90
2022-10-09T00:54:18.183Z,99.90
2022-10-09T00:56:45.238Z,99.90
2022-10-09T00:59:12.893Z,99.90
2022-10-09T01:01:41.457Z,99.90
2022-10-09T01:04:08.827Z,99.90
2022-10-09T01:06:41.088Z,99.90
2022-10-09T01:09:22.967Z,99.90
2022-10-09T01:12:03.063Z,99.90
2022-10-09T01:14:39.173Z,99.90
2022-10-09T01:17:20.902Z,99.90
2022-10-09T01:20:43.414Z,99.90
2022-10-09T01:23:45.007Z,99.90
2022-10-09T01:26:44.965Z,99.90
2022-10-09T01:29:13.674Z,99.90
2022-10-09T01:31:45.798Z,99.90
2022-10-09T01:34:14.879Z,99.90
2022-10-09T01:36:44.010Z,99.90
2022-10-09T01:39:15.819Z,99.90
2022-10-09T01:41:43.759Z,99.90
2022-10-09T01:44:25.067Z,99.90
2022-10-09T01:46:52.342Z,99.90
2022-10-09T01:49:55.831Z,99.90
2022-10-09T01:53:04.748Z,99.90
2022-10-09T01:56:11.777Z,99.90
2022-10-09T01:58:44.523Z,99.90
2022-10-09T02:01:18.796Z,99.90
2022-10-09T02:03:49.611Z,99.90
2022-10-09T02:06:18.371Z,99.90
2022-10-09T02:08:50.309Z,99.90
2022-10-09T02:11:18.103Z,99.90
2022-10-09T02:13:47.530Z,99.90
2022-10-09T02:16:42.160Z,99.90
2022-10-09T02:19:16.208Z,99.90
2022-10-09T02:21:59.610Z,99.90
2022-10-09T02:24:27.156Z,99.90
2022-10-09T02:26:56.262Z,99.90
2022-10-09T02:29:23.459Z,99.90
2022-10-09T02:31:50.573Z,99.90
2022-10-09T02:34:19.710Z,99.90
2022-10-09T02:36:47.607Z,99.90
2022-10-09T02:39:14.558Z,99.90
2022-10-09T02:41:41.628Z,99.90
2022-10-09T02:44:08.514Z,99.90
2022-10-09T02:46:35.741Z,99.90
2022-10-09T02:49:03.068Z,99.90
2022-10-09T02:51:29.974Z,99.90
2022-10-09T02:53:57.020Z,99.90
2022-10-09T02:56:24.314Z,99.90
2022-10-09T02:58:51.332Z,99.90
2022-10-09T03:01:18.717Z,99.90
2022-10-09T03:03:46.104Z,99.90
2022-10-09T03:06:15.084Z,99.90
2022-10-09T03:08:45.011Z,99.90
2022-10-09T03:11:12.720Z,99.90
2022-10-09T03:13:39.983Z,99.90
2022-10-09T03:16:12.468Z,99.90
2022-10-09T03:18:39.762Z,99.90
2022-10-09T03:21:11.844Z,99.90
2022-10-09T03:23:38.855Z,99.90
2022-10-09T03:26:09.949Z,99.90
2022-10-09T03:28:38.393Z,99.90
2022-10-09T03:31:05.945Z,99.90
2022-10-09T03:33:33.973Z,99.90
2022-10-09T03:36:00.835Z,99.90
2022-10-09T03:38:27.904Z,99.90
2022-10-09T03:40:55.100Z,99.90
2022-10-09T03:43:22.027Z,99.90
2022-10-09T03:45:49.010Z,99.90
2022-10-09T03:48:15.986Z,99.90
2022-10-09T03:50:43.166Z,99.90
2022-10-09T03:53:11.577Z,99.90
2022-10-09T03:55:39.522Z,99.90
2022-10-09T03:58:07.178Z,99.90
2022-10-09T04:00:34.965Z,99.90
2022-10-09T04:03:02.464Z,99.90
2022-10-09T04:05:30.554Z,99.90
2022-10-09T04:07:57.559Z,99.90
2022-10-09T04:10:24.459Z,99.90
2022-10-09T04:12:51.724Z,99.90
2022-10-09T04:15:18.800Z,99.90
2022-10-09T04:17:45.904Z,99.90
2022-10-09T04:20:12.911Z,99.90
2022-10-09T04:22:40.025Z,99.90
2022-10-09T04:25:07.529Z,99.90
2022-10-09T04:27:34.643Z,99.90
2022-10-09T04:30:01.928Z,99.90
2022-10-09T04:32:28.920Z,99.90
2022-10-09T04:34:55.926Z,99.90
2022-10-09T04:37:24.066Z,99.90
2022-10-09T04:39:51.007Z,99.90
2022-10-09T04:42:18.096Z,99.90
2022-10-09T04:44:45.229Z,99.90
2022-10-09T04:47:12.279Z,99.90
2022-10-09T04:49:39.993Z,99.90
2022-10-09T04:52:07.074Z,99.90
2022-10-09T04:54:34.103Z,99.90
2022-10-09T04:57:01.170Z,99.90
2022-10-09T04:59:28.217Z,99.90
2022-10-09T05:01:55.391Z,99.90
2022-10-09T05:04:22.466Z,99.90
2022-10-09T05:06:49.563Z,99.90
2022-10-09T05:09:16.647Z,99.90
2022-10-09T05:11:43.690Z,99.90
2022-10-09T05:14:10.855Z,99.90
2022-10-09T05:17:08.356Z,99.90
2022-10-09T05:19:25.847Z,99.90
2022-10-09T05:21:53.065Z,99.90
2022-10-09T05:24:20.577Z,99.90
2022-10-09T05:26:47.674Z,99.90
2022-10-09T05:29:14.679Z,99.90
2022-10-09T05:31:48.357Z,99.90
2022-10-09T05:34:16.597Z,99.90
2022-10-09T05:36:43.692Z,99.90
2022-10-09T05:39:11.016Z,99.90
2022-10-09T05:41:38.133Z,99.90
2022-10-09T05:44:05.191Z,99.90
2022-10-09T05:46:32.365Z,99.90
2022-10-09T05:49:05.895Z,99.90
2022-10-09T05:51:35.378Z,99.90
2022-10-09T05:54:02.304Z,99.90
2022-10-09T05:56:30.391Z,99.90
2022-10-09T05:59:02.333Z,99.90
2022-10-09T06:01:33.174Z,99.90
2022-10-09T06:04:01.480Z,99.90
2022-10-09T06:06:31.088Z,99.90
2022-10-09T06:08:59.021Z,99.90
2022-10-09T06:11:31.842Z,99.90
2022-10-09T06:14:00.357Z,99.90
2022-10-09T06:16:30.276Z,99.90
2022-10-09T06:18:58.136Z,99.90
2022-10-09T06:21:26.564Z,99.90
2022-10-09T06:23:58.913Z,99.90
2022-10-09T06:26:29.277Z,99.90
2022-10-09T06:28:56.901Z,99.90
2022-10-09T06:31:26.315Z,99.90
2022-10-09T06:33:53.717Z,99.90
2022-10-09T06:36:23.358Z,99.90
2022-10-09T06:38:51.156Z,99.90
2022-10-09T06:41:25.950Z,99.90
2022-10-09T06:43:55.143Z,99.90
2022-10-09T06:46:24.995Z,99.90
2022-10-09T06:48:52.272Z,99.90
2022-10-09T06:51:21.573Z,99.90
2022-10-09T06:53:51.144Z,99.90
2022-10-09T06:56:19.237Z,93.60
2022-10-09T06:58:46.804Z,74.70
2022-10-09T07:01:25.177Z,59.80
2022-10-09T07:03:57.589Z,49.90
2022-10-09T07:06:27.191Z,59.80
2022-10-09T07:08:58.129Z,50.50
2022-10-09T07:11:27.507Z,37.90
2022-10-09T07:13:57.527Z,37.70
2022-10-09T07:16:29.960Z,48.10
2022-10-09T07:18:57.346Z,45.00
2022-10-09T07:21:24.490Z,31.60
2022-10-09T07:23:51.541Z,23.80
2022-10-09T07:26:21.977Z,20.50
2022-10-09T07:28:50.067Z,20.50
2022-10-09T07:31:17.645Z,19.00
2022-10-09T07:33:48.135Z,20.00
2022-10-09T07:36:15.123Z,19.10
2022-10-09T07:38:42.398Z,14.40
2022-10-09T07:41:11.532Z,6.90
2022-10-09T07:43:40.198Z,5.00
2022-10-09T07:46:12.513Z,5.00
2022-10-09T07:48:39.929Z,18.40
2022-10-09T07:51:18.680Z,19.30
2022-10-09T07:53:46.584Z,10.70
2022-10-09T07:56:18.387Z,11.00
2022-10-09T07:58:50.253Z,8.70
2022-10-09T08:01:20.349Z,3.70
2022-10-09T08:03:48.104Z,1.00
2022-10-09T08:06:15.310Z,1.00
2022-10-09T08:08:43.219Z,1.00
2022-10-09T08:11:15.108Z,1.00
2022-10-09T08:13:43.527Z,1.00
2022-10-09T08:16:10.936Z,1.00
2022-10-09T08:18:37.986Z,1.00
2022-10-09T08:21:07.794Z,1.00
2022-10-09T08:23:34.919Z,1.00
2022-10-09T08:26:02.264Z,1.00
2022-10-09T08:28:29.286Z,1.00
2022-10-09T08:30:56.445Z,1.00
2022-10-09T08:33:24.981Z,1.00
2022-10-09T08:35:53.262Z,1.00
2022-10-09T08:38:45.436Z,1.00
2022-10-09T08:41:50.206Z,1.00
2022-10-09T08:44:38.795Z,1.00
2022-10-09T08:47:35.009Z,1.00
2022-10-09T08:50:18.856Z,1.00
2022-10-09T08:53:00.425Z,1.00
2022-10-09T08:55:31.559Z,1.00
2022-10-09T08:58:07.327Z,1.00
2022-10-09T09:00:46.167Z,1.00
2022-10-09T09:03:45.502Z,1.00
2022-10-09T09:06:44.660Z,1.00
2022-10-09T09:09:56.283Z,1.00
2022-10-09T09:12:42.998Z,1.00
2022-10-09T09:15:49.025Z,1.00
2022-10-09T09:18:57.903Z,1.00
2022-10-09T09:21:51.257Z,1.00
2022-10-09T09:24:33.656Z,1.00
2022-10-09T09:27:04.437Z,1.00
2022-10-09T09:29:39.456Z,1.00
2022-10-09T09:32:15.831Z,1.00
2022-10-09T09:34:43.091Z,1.00
2022-10-09T09:37:13.336Z,1.00
2022-10-09T09:42:28.509Z,1.00
2022-10-09T09:45:06.653Z,1.00
2022-10-09T09:47:41.954Z,1.00
2022-10-09T09:50:23.322Z,1.00
2022-10-09T09:52:56.431Z,1.00
2022-10-09T09:55:27.677Z,1.00
2022-10-09T09:58:05.443Z,1.00
2022-10-09T10:00:33.065Z,1.00
2022-10-09T10:03:18.544Z,1.00
2022-10-09T10:05:45.863Z,1.00
2022-10-09T10:08:33.086Z,1.00
2022-10-09T10:11:07.032Z,1.00
2022-10-09T10:13:49.119Z,1.00
2022-10-09T10:16:25.717Z,1.00
2022-10-09T10:18:54.647Z,1.00
2022-10-09T10:21:22.533Z,1.00
2022-10-09T10:24:18.941Z,1.00
2022-10-09T10:26:58.655Z,1.00
2022-10-09T10:29:47.146Z,1.00
2022-10-09T10:32:58.636Z,1.00
2022-10-09T10:35:38.695Z,1.00
2022-10-09T10:38:18.390Z,1.00
2022-10-09T10:40:56.827Z,1.00
2022-10-09T10:43:28.514Z,1.00
2022-10-09T10:46:32.185Z,1.00
2022-10-09T10:49:00.474Z,1.00
2022-10-09T10:52:20.964Z,1.00
2022-10-09T10:54:58.947Z,1.00
2022-10-09T10:57:51.469Z,1.00
2022-10-09T11:00:18.759Z,1.00
2022-10-09T11:03:18.949Z,1.00
2022-10-09T11:06:18.994Z,1.00
2022-10-09T11:09:15.584Z,1.00
2022-10-09T11:12:24.660Z,1.00
2022-10-09T11:15:38.170Z,1.00
2022-10-09T11:18:17.003Z,1.00
2022-10-09T11:21:16.113Z,1.00
2022-10-09T11:24:19.389Z,1.00
2022-10-09T11:30:02.879Z,1.00
2022-10-09T11:32:54.163Z,1.00
2022-10-09T11:38:11.447Z,1.00
2022-10-09T11:40:42.999Z,1.00
2022-10-09T11:43:41.554Z,1.00
2022-10-09T11:46:32.958Z,1.00
2022-10-09T11:49:03.754Z,1.00
2022-10-09T11:51:47.920Z,1.00
2022-10-09T11:54:18.684Z,1.00
2022-10-09T11:56:57.690Z,1.00
2022-10-09T11:59:30.370Z,1.00
2022-10-09T12:02:13.876Z,1.00
2022-10-09T12:04:54.391Z,1.00
2022-10-09T12:07:34.554Z,1.00
2022-10-09T12:10:33.782Z,1.00
2022-10-09T12:13:04.325Z,1.00
2022-10-09T12:16:00.308Z,1.00
2022-10-09T12:18:50.332Z,1.00
2022-10-09T12:21:59.490Z,1.00
2022-10-09T12:24:33.438Z,1.00
2022-10-09T12:27:03.375Z,1.00
2022-10-09T12:29:57.554Z,1.00
2022-10-09T12:32:31.659Z,1.00
2022-10-09T12:34:59.275Z,1.00
2022-10-09T12:37:35.944Z,1.00
2022-10-09T12:40:18.943Z,1.00
2022-10-09T12:42:46.625Z,1.00
2022-10-09T12:45:43.529Z,1.00
2022-10-09T12:48:13.475Z,1.00
2022-10-09T12:50:42.008Z,1.00
2022-10-09T12:53:18.320Z,1.00
2022-10-09T12:55:52.702Z,1.00
2022-10-09T12:58:27.165Z,1.00
2022-10-09T13:00:57.606Z,1.00
2022-10-09T13:03:52.554Z,1.00
2022-10-09T13:06:22.921Z,1.00
2022-10-09T13:08:57.238Z,1.00
2022-10-09T13:11:44.914Z,1.00
2022-10-09T13:14:44.856Z,1.00
2022-10-09T13:20:32.104Z,1.00
2022-10-09T13:23:05.027Z,1.00
2022-10-09T13:25:41.750Z,1.00
2022-10-09T13:28:11.993Z,1.00
2022-10-09T13:30:39.003Z,1.00
2022-10-09T13:33:14.519Z,1.00
2022-10-09T13:35:41.778Z,1.00
2022-10-09T13:38:17.525Z,1.00
2022-10-09T13:40:44.949Z,1.00
2022-10-09T13:43:18.312Z,1.00
2022-10-09T13:45:45.360Z,1.00
2022-10-09T13:48:12.418Z,1.00
2022-10-09T13:50:39.442Z,1.00
2022-10-09T13:53:06.465Z,1.00
2022-10-09T13:55:33.506Z,1.00
2022-10-09T13:58:00.481Z,1.00
2022-10-09T14:00:27.808Z,1.00
2022-10-09T14:02:54.970Z,1.00
2022-10-09T14:05:22.272Z,1.00
2022-10-09T14:07:51.860Z,1.00
2022-10-09T14:10:23.049Z,1.00
2022-10-09T14:12:51.792Z,1.00
2022-10-09T14:15:19.100Z,1.00
2022-10-09T14:17:46.400Z,1.00
2022-10-09T14:20:13.669Z,1.00
2022-10-09T14:22:40.617Z,1.00
2022-10-09T14:25:08.495Z,1.00
2022-10-09T14:30:08.503Z,1.00
2022-10-09T14:32:35.499Z,1.00
2022-10-09T14:35:02.372Z,1.00
2022-10-09T14:37:41.061Z,1.00
2022-10-09T14:40:10.626Z,1.00
2022-10-09T14:42:38.453Z,1.00
2022-10-09T14:45:06.660Z,1.00
2022-10-09T14:47:33.706Z,1.00
2022-10-09T14:50:00.676Z,1.00
2022-10-09T14:52:27.557Z,1.00
2022-10-09T14:54:54.504Z,1.00
2022-10-09T14:57:22.043Z,1.00
2022-10-09T14:59:48.991Z,1.00
2022-10-09T15:02:17.817Z,1.00
2022-10-09T15:04:44.677Z,1.00
2022-10-09T15:07:11.615Z,1.00
2022-10-09T15:09:38.523Z,1.00
2022-10-09T15:12:05.805Z,1.00
2022-10-09T15:14:32.677Z,1.00
2022-10-09T15:16:59.528Z,1.00
2022-10-09T15:19:26.406Z,1.00
2022-10-09T15:21:53.425Z,1.00
2022-10-09T15:24:20.390Z,1.00
2022-10-09T15:26:47.367Z,1.00
2022-10-09T15:29:14.280Z,1.00
2022-10-09T15:31:42.229Z,1.00
2022-10-09T15:34:13.859Z,1.00
2022-10-09T15:36:43.190Z,1.00
2022-10-09T15:39:10.547Z,1.00
2022-10-09T15:41:39.655Z,1.00
2022-10-09T15:44:16.586Z,1.00
2022-10-09T15:46:44.097Z,1.00
2022-10-09T15:49:11.388Z,1.00
2022-10-09T15:51:38.680Z,1.00
2022-10-09T15:54:06.063Z,1.00
2022-10-09T15:56:36.087Z,1.00
2022-10-09T15:59:06.588Z,1.00
2022-10-09T16:01:33.604Z,1.00
2022-10-09T16:04:00.497Z,1.00
2022-10-09T16:06:27.608Z,1.00
2022-10-09T16:08:58.752Z,1.00
2022-10-09T16:11:26.825Z,1.00
2022-10-09T16:13:55.679Z,1.00
2022-10-09T16:16:24.731Z,1.00
2022-10-09T16:18:52.270Z,1.00
2022-10-09T16:21:22.230Z,1.00
2022-10-09T16:23:52.232Z,1.00
2022-10-09T16:26:22.808Z,1.00
2022-10-09T16:28:51.887Z,1.00
2022-10-09T16:31:31.413Z,1.00
2022-10-09T16:33:59.120Z,1.00
2022-10-09T16:36:26.620Z,1.00
2022-10-09T16:38:53.716Z,1.00
2022-10-09T16:41:22.485Z,1.00
2022-10-09T16:43:52.814Z,1.00
2022-10-09T16:46:23.203Z,1.00
2022-10-09T16:48:51.817Z,1.00
2022-10-09T16:51:21.815Z,1.00
2022-10-09T16:53:53.412Z,1.00
2022-10-09T16:56:23.735Z,1.00
2022-10-09T16:58:55.819Z,1.00
2022-10-09T17:01:23.676Z,1.00
2022-10-09T17:03:50.963Z,1.00
2022-10-09T17:06:23.859Z,1.00
2022-10-09T17:08:56.152Z,1.00
2022-10-09T17:11:24.620Z,1.00
2022-10-09T17:13:58.663Z,1.00
2022-10-09T17:16:28.886Z,1.00
2022-10-09T17:18:56.362Z,1.00
2022-10-09T17:21:26.708Z,1.00
2022-10-09T17:23:57.763Z,1.00
2022-10-09T17:26:26.359Z,1.00
2022-10-09T17:28:54.311Z,1.00
2022-10-09T17:31:24.028Z,1.00
2022-10-09T17:33:55.417Z,1.00
2022-10-09T17:36:24.427Z,1.00
2022-10-09T17:38:52.215Z,1.00
2022-10-09T17:41:24.110Z,1.00
2022-10-09T17:43:52.727Z,1.00
2022-10-09T17:46:20.860Z,1.00
2022-10-09T17:48:53.314Z,1.00
2022-10-09T17:51:26.322Z,1.00
2022-10-09T17:53:54.552Z,1.00
2022-10-09T17:56:21.473Z,1.00
2022-10-09T17:58:49.604Z,1.00
2022-10-09T18:01:17.895Z,1.00
2022-10-09T18:03:45.362Z,1.00
2022-10-09T18:06:16.116Z,1.00
2022-10-09T18:08:44.182Z,1.00
2022-10-09T18:11:14.887Z,1.00
2022-10-09T18:13:43.182Z,1.00
2022-10-09T18:16:13.420Z,5.00
2022-10-09T18:18:40.526Z,4.40
2022-10-09T18:21:10.270Z,8.80
2022-10-09T18:23:37.621Z,8.60
2022-10-09T18:26:09.246Z,8.80
2022-10-09T18:28:37.122Z,8.50
2022-10-09T18:31:08.835Z,10.30
2022-10-09T18:33:35.966Z,10.20
2022-10-09T18:36:19.597Z,12.80
2022-10-09T18:38:54.952Z,13.10
2022-10-09T18:41:23.085Z,14.90
2022-10-09T18:43:51.635Z,14.90
2022-10-09T18:46:22.353Z,14.50
2022-10-09T18:48:50.530Z,15.60
2022-10-09T18:51:20.382Z,17.00
2022-10-09T18:53:50.967Z,18.40
2022-10-09T18:56:20.960Z,18.50
2022-10-09T18:58:50.035Z,19.90
2022-10-09T19:01:17.482Z,21.20
2022-10-09T19:03:47.587Z,21.40
2022-10-09T19:06:18.436Z,21.00
2022-10-09T19:08:45.680Z,21.50
2022-10-09T19:11:14.696Z,24.10
2022-10-09T19:13:43.068Z,23.10
2022-10-09T19:16:10.159Z,24.70
2022-10-09T19:18:38.082Z,24.40
2022-10-09T19:21:05.842Z,27.60
2022-10-09T19:23:35.139Z,28.50
2022-10-09T19:26:02.027Z,27.20
2022-10-09T19:28:37.168Z,30.80
2022-10-09T19:31:08.757Z,31.10
2022-10-09T19:33:37.983Z,41.10
2022-10-09T19:36:05.943Z,35.80
2022-10-09T19:38:33.380Z,39.20
2022-10-09T19:41:09.044Z,35.10
2022-10-09T19:43:36.111Z,35.90
2022-10-09T19:46:09.226Z,35.80
2022-10-09T19:48:36.760Z,37.00
2022-10-09T19:51:08.727Z,38.60
2022-10-09T19:53:36.079Z,37.70
2022-10-09T19:56:08.453Z,37.40
2022-10-09T19:58:35.489Z,41.00
2022-10-09T20:01:02.487Z,41.00
2022-10-09T20:03:29.988Z,42.10
2022-10-09T20:06:01.902Z,44.10
2022-10-09T20:08:28.968Z,44.70
2022-10-09T20:11:02.957Z,44.70
2022-10-09T20:13:35.745Z,46.50
2022-10-09T20:16:09.595Z,46.90
2022-10-09T20:18:39.570Z,46.10
2022-10-09T20:21:07.060Z,47.90
2022-10-09T20:23:34.085Z,51.20
2022-10-09T20:26:03.991Z,52.40
2022-10-09T20:28:35.926Z,53.70
2022-10-09T20:31:08.000Z,52.80
2022-10-09T20:33:36.302Z,59.60
2022-10-09T20:36:04.158Z,57.90
2022-10-09T20:38:31.015Z,60.60
2022-10-09T20:41:08.433Z,62.70
2022-10-09T20:43:36.263Z,59.70
2022-10-09T20:46:10.922Z,61.20
2022-10-09T20:48:37.973Z,60.80
2022-10-09T20:51:05.231Z,60.30
2022-10-09T20:53:32.325Z,61.80
2022-10-09T20:56:12.700Z,64.70
2022-10-09T20:58:48.086Z,64.30
2022-10-09T21:01:16.727Z,65.10
2022-10-09T21:03:44.457Z,65.80
2022-10-09T21:06:13.452Z,65.90
2022-10-09T21:08:40.478Z,68.40
2022-10-09T21:11:10.398Z,66.50
2022-10-09T21:13:38.176Z,69.20
2022-10-09T21:16:11.106Z,69.40
2022-10-09T21:18:39.236Z,71.80
2022-10-09T21:21:11.870Z,71.50
2022-10-09T21:23:39.211Z,75.10
2022-10-09T21:26:14.158Z,75.20
2022-10-09T21:28:41.917Z,72.90
2022-10-09T21:31:18.022Z,74.50
2022-10-09T21:33:45.955Z,75.00
2022-10-09T21:36:28.879Z,75.10
2022-10-09T21:38:55.893Z,77.20
2022-10-09T21:41:26.098Z,76.10
2022-10-09T21:43:53.105Z,76.80
2022-10-09T21:46:20.150Z,76.80
2022-10-09T21:48:47.549Z,79.10
2022-10-09T21:51:15.625Z,79.20
2022-10-09T21:53:42.974Z,79.70
2022-10-09T21:56:10.247Z,81.00
2022-10-09T21:58:38.799Z,81.80
2022-10-09T22:01:06.165Z,82.40
2022-10-09T22:03:35.076Z,83.70
2022-10-09T22:06:09.421Z,84.20
2022-10-09T22:08:36.420Z,86.00
2022-10-09T22:11:08.021Z,87.10
2022-10-09T22:13:35.166Z,88.30
2022-10-09T22:16:09.111Z,86.90
2022-10-09T22:18:36.908Z,88.30
2022-10-09T22:21:10.034Z,90.00
2022-10-09T22:23:39.861Z,89.30
2022-10-09T22:26:11.391Z,89.50
2022-10-09T22:28:38.305Z,90.20
2022-10-09T22:31:09.622Z,91.20
2022-10-09T22:33:36.854Z,91.20
2022-10-09T22:36:13.641Z,91.60
2022-10-09T22:38:40.881Z,92.30
2022-10-09T22:41:20.081Z,91.70
2022-10-09T22:43:49.881Z,91.00
2022-10-09T22:46:29.310Z,91.80
2022-10-09T22:48:56.840Z,92.50
2022-10-09T22:51:26.140Z,92.30
2022-10-09T22:53:53.059Z,93.10
2022-10-09T22:56:25.663Z,93.20
2022-10-09T22:58:53.331Z,93.00
2022-10-09T23:01:39.557Z,92.80
2022-10-09T23:04:10.469Z,92.50
2022-10-09T23:06:38.053Z,92.40
2022-10-09T23:09:07.216Z,93.20
2022-10-09T23:11:34.908Z,93.20
2022-10-09T23:14:02.521Z,93.20
2022-10-09T23:16:30.616Z,94.00
2022-10-09T23:19:01.011Z,94.80
2022-10-09T23:21:31.813Z,95.10
2022-10-09T23:23:59.512Z,95.20
2022-10-09T23:26:28.868Z,96.40
2022-10-09T23:29:15.433Z,96.70
2022-10-09T23:31:42.417Z,97.30
2022-10-09T23:34:09.550Z,96.60
2022-10-09T23:36:36.490Z,98.00
2022-10-09T23:39:05.713Z,98.40
2022-10-09T23:41:33.099Z,98.20
2022-10-09T23:43:59.950Z,98.90
2022-10-09T23:46:29.439Z,98.90
2022-10-09T23:48:56.666Z,99.20
2022-10-09T23:51:26.249Z,99.90
2022-10-09T23:53:53.499Z,99.90
2022-10-09T23:56:24.851Z,99.90
2022-10-09T23:58:52.989Z,99.90
